Lugano, Switzerland
Current Conditions -  °F | °C
As of 4:20 PM on Saturday 25 Oct 2014 (Local Time) from LSZA Reporting Station
Broken Clouds Broken Clouds  
Wind Chill: 59°   Ceiling: 20000
Heat Index: 59°   Visibility: 6mi
Dew Point: 48°   Wind: 5mph
Humidity: 67%   Direction: 190°S
Pressure: 30.12"   Gusts: NA
Location:  46.01°N, 8.94°E
Report Text: LSZA 251420Z 19004KT 9999 FEW030 SCT040 BKN200 15/09 Q1020 NOSIG
Loading
Personal Weather Stations






























Interactive Weather Map
Tropical Storm Tracking
New forecast layout! Learn more

10-Day Weather Forecast

Advertisements
Track Severe Weather on mobile